Time;durP1;ratioP1;P1;durP2;ratioP2;P2;SDS_P1;SDS_P2;PMS_P1;PMS_P2;Temp;Humidity;BMP_temperature;BMP_pressure;BME280_temperature;BME280_humidity;BME280_pressure;Samples;Min_cycle;Max_cycle;Signal;HPM_P1;HPM_P2
2022/03/08 00:01:51;;;;;;;12.43;8.43;;;-1.10;99.90;;;;;;4994660;28;20181;-76
2022/03/08 00:04:17;;;;;;;10.93;7.60;;;-1.20;99.90;;;;;;4978522;28;20196;-76
2022/03/08 00:06:42;;;;;;;12.10;7.60;;;-1.30;99.90;;;;;;4962494;28;20189;-75
2022/03/08 00:09:08;;;;;;;10.93;8.00;;;-1.50;99.90;;;;;;4978374;28;20208;-76
2022/03/08 00:11:34;;;;;;;11.23;8.40;;;-1.50;99.90;;;;;;4994554;28;20296;-76
2022/03/08 00:13:59;;;;;;;13.03;8.50;;;-1.50;99.90;;;;;;4978353;28;20187;-76
2022/03/08 00:16:25;;;;;;;10.77;8.40;;;-1.50;99.90;;;;;;4962441;28;20181;-76
2022/03/08 00:18:51;;;;;;;10.87;8.17;;;-1.50;99.90;;;;;;4978507;28;20185;-76
2022/03/08 00:21:17;;;;;;;11.13;8.30;;;-1.40;99.90;;;;;;4978330;28;20188;-76
2022/03/08 00:23:43;;;;;;;10.07;8.17;;;-1.40;99.90;;;;;;4978372;28;20215;-76
2022/03/08 00:26:09;;;;;;;13.00;8.80;;;-1.40;99.90;;;;;;4978646;28;20208;-76
2022/03/08 00:28:35;;;;;;;12.33;8.70;;;-1.40;99.90;;;;;;4994426;28;20221;-76
2022/03/08 00:31:00;;;;;;;13.20;8.50;;;-1.40;99.90;;;;;;4978398;28;20208;-76
2022/03/08 00:33:26;;;;;;;10.73;7.80;;;-1.40;99.90;;;;;;4962264;28;20187;-76
2022/03/08 00:35:52;;;;;;;11.43;8.57;;;-1.40;99.90;;;;;;4994346;28;20203;-75
2022/03/08 00:38:19;;;;;;;12.77;8.80;;;-1.50;99.90;;;;;;4994420;28;20205;-76
2022/03/08 00:40:45;;;;;;;13.03;8.80;;;-1.50;99.90;;;;;;4978606;28;20211;-76
2022/03/08 00:43:11;;;;;;;11.53;8.40;;;-1.60;99.90;;;;;;4978125;28;20243;-76
2022/03/08 00:45:37;;;;;;;11.47;8.33;;;-1.60;99.90;;;;;;4978056;28;20183;-76
2022/03/08 00:48:03;;;;;;;12.17;8.40;;;-1.50;99.90;;;;;;4994360;28;20180;-76
2022/03/08 00:50:30;;;;;;;11.73;7.73;;;-1.40;99.90;;;;;;4978080;28;20586;-76
2022/03/08 00:52:58;;;;;;;10.93;8.30;;;-1.30;99.90;;;;;;4978988;28;20274;-76
2022/03/08 00:55:26;;;;;;;11.60;8.37;;;-1.30;99.90;;;;;;4966076;28;20606;-76
2022/03/08 00:57:52;;;;;;;13.87;9.03;;;-1.40;99.90;;;;;;4998074;28;20575;-76
2022/03/08 01:00:22;;;;;;;12.47;8.33;;;-1.40;99.90;;;;;;5048084;22;20283;-74
2022/03/08 01:02:48;;;;;;;11.63;8.43;;;-1.50;99.90;;;;;;4998043;28;20284;-74
2022/03/08 01:05:14;;;;;;;13.27;8.17;;;-1.60;99.90;;;;;;5014255;28;20621;-74
2022/03/08 01:07:40;;;;;;;10.50;8.43;;;-1.60;99.90;;;;;;5014140;28;20181;-74
2022/03/08 01:10:09;;;;;;;11.80;7.83;;;-1.60;99.90;;;;;;5014000;28;20233;-74
2022/03/08 01:12:36;;;;;;;11.03;7.90;;;-1.60;99.90;;;;;;4997986;28;20303;-74
2022/03/08 01:15:02;;;;;;;10.23;7.37;;;-1.70;99.90;;;;;;5013844;28;20169;-74
2022/03/08 01:17:28;;;;;;;11.70;7.73;;;-1.80;99.90;;;;;;4997664;28;20244;-74
2022/03/08 01:19:54;;;;;;;13.20;7.57;;;-1.70;99.90;;;;;;4981308;28;20287;-74
2022/03/08 01:22:19;;;;;;;10.30;7.50;;;-1.70;99.90;;;;;;4997338;28;20184;-74
2022/03/08 01:24:45;;;;;;;10.30;7.37;;;-1.60;99.90;;;;;;4997748;28;20181;-74
2022/03/08 01:27:11;;;;;;;12.30;7.47;;;-1.70;99.90;;;;;;5013834;28;20267;-74
2022/03/08 01:29:36;;;;;;;11.00;7.90;;;-1.80;99.90;;;;;;4997435;28;20576;-74
2022/03/08 01:32:02;;;;;;;11.87;8.10;;;-1.90;99.90;;;;;;4997111;28;20203;-74
2022/03/08 01:34:28;;;;;;;12.73;8.20;;;-2.10;99.90;;;;;;5013472;28;20172;-74
2022/03/08 01:36:55;;;;;;;12.63;8.60;;;-2.10;99.90;;;;;;5013503;28;20231;-74
2022/03/08 01:39:21;;;;;;;11.60;8.33;;;-2.20;99.90;;;;;;4997511;28;20354;-74
2022/03/08 01:41:47;;;;;;;12.17;8.37;;;-2.30;99.90;;;;;;4997079;28;20596;-74
2022/03/08 01:44:13;;;;;;;13.37;8.77;;;-2.30;99.90;;;;;;4981245;28;20186;-74
2022/03/08 01:46:38;;;;;;;11.13;7.93;;;-2.20;99.90;;;;;;4980976;28;20183;-74
2022/03/08 01:49:05;;;;;;;13.47;8.67;;;-2.10;99.90;;;;;;4996892;28;20187;-74
2022/03/08 01:51:33;;;;;;;12.47;8.60;;;-2.00;99.90;;;;;;5013115;28;20203;-74
2022/03/08 01:53:59;;;;;;;11.33;7.97;;;-2.10;99.90;;;;;;4997384;28;20175;-74
2022/03/08 01:56:24;;;;;;;12.97;8.77;;;-2.00;99.90;;;;;;4997160;28;20183;-74
2022/03/08 01:58:50;;;;;;;11.07;7.90;;;-2.00;99.90;;;;;;4980687;28;20182;-74
2022/03/08 02:01:15;;;;;;;12.90;9.10;;;-2.00;99.90;;;;;;4996589;28;20350;-74
2022/03/08 02:03:41;;;;;;;14.13;8.83;;;-2.00;99.90;;;;;;5013006;28;20175;-74
2022/03/08 02:06:07;;;;;;;15.90;8.90;;;-2.10;99.90;;;;;;4979927;28;20180;-74
2022/03/08 02:08:32;;;;;;;12.73;8.77;;;-2.20;99.90;;;;;;4980767;28;20252;-74
2022/03/08 02:10:59;;;;;;;12.80;8.47;;;-2.10;99.90;;;;;;5012908;28;20213;-74
2022/03/08 02:13:26;;;;;;;10.80;8.63;;;-2.10;99.90;;;;;;4996568;28;20182;-74
2022/03/08 02:15:52;;;;;;;12.37;8.33;;;-2.00;99.90;;;;;;5012857;28;20177;-74
2022/03/08 02:18:18;;;;;;;11.27;8.17;;;-2.10;99.90;;;;;;4980385;28;20673;-74
2022/03/08 02:20:45;;;;;;;11.40;7.67;;;-2.00;99.90;;;;;;4980268;28;20224;-74
2022/03/08 02:23:10;;;;;;;10.00;7.50;;;-2.00;99.90;;;;;;4996590;28;20191;-74
2022/03/08 02:25:36;;;;;;;10.30;7.73;;;-1.90;99.90;;;;;;5012941;28;20176;-74
2022/03/08 02:28:02;;;;;;;12.67;8.07;;;-1.80;99.90;;;;;;5012582;28;20178;-74
2022/03/08 02:30:28;;;;;;;11.63;7.83;;;-1.80;99.90;;;;;;5012471;28;20287;-74
2022/03/08 02:32:55;;;;;;;11.40;8.03;;;-1.90;99.90;;;;;;4979709;28;20295;-75
2022/03/08 02:35:23;;;;;;;13.00;7.87;;;-2.00;99.90;;;;;;5012749;28;20175;-74
2022/03/08 02:37:52;;;;;;;10.27;7.03;;;-2.00;99.90;;;;;;4996586;28;20660;-74
2022/03/08 02:40:23;;;;;;;10.53;7.23;;;-2.10;99.90;;;;;;5012775;28;20219;-74
2022/03/08 02:42:50;;;;;;;11.37;7.80;;;-2.00;99.90;;;;;;4996474;28;20177;-74
2022/03/08 02:45:17;;;;;;;11.60;7.33;;;-2.20;99.90;;;;;;5012242;28;20665;-74
2022/03/08 02:47:43;;;;;;;12.37;7.63;;;-2.10;99.90;;;;;;4995922;28;20266;-74
2022/03/08 02:50:11;;;;;;;9.83;7.57;;;-2.10;99.90;;;;;;5012147;28;20740;-74
2022/03/08 02:52:40;;;;;;;10.87;7.30;;;-2.00;99.90;;;;;;4979708;28;20580;-74
2022/03/08 02:55:06;;;;;;;12.40;8.00;;;-2.00;99.90;;;;;;5012188;28;20178;-74
2022/03/08 02:57:32;;;;;;;11.43;7.57;;;-1.90;99.90;;;;;;4995985;28;20172;-74
2022/03/08 02:59:57;;;;;;;11.07;7.33;;;-2.00;99.90;;;;;;5011700;28;20229;-74
2022/03/08 03:02:23;;;;;;;12.50;6.93;;;-2.00;99.90;;;;;;4995818;28;20690;-74
2022/03/08 03:04:49;;;;;;;10.57;7.17;;;-2.10;99.90;;;;;;4979491;28;20181;-74
2022/03/08 03:07:15;;;;;;;10.07;7.40;;;-2.10;99.90;;;;;;5012027;28;20186;-74
2022/03/08 03:09:41;;;;;;;12.13;8.37;;;-2.20;99.90;;;;;;5011828;28;20195;-74
2022/03/08 03:12:07;;;;;;;11.37;7.83;;;-2.30;99.90;;;;;;5011523;28;20203;-74
2022/03/08 03:14:33;;;;;;;11.63;8.47;;;-2.50;99.90;;;;;;4995417;28;20226;-74
2022/03/08 03:16:59;;;;;;;9.83;7.40;;;-2.50;99.90;;;;;;4994838;28;20179;-74
2022/03/08 03:19:24;;;;;;;11.10;7.33;;;-2.50;99.90;;;;;;5011787;28;20195;-74
2022/03/08 03:21:50;;;;;;;11.87;8.03;;;-2.60;99.90;;;;;;4995321;28;20183;-74
2022/03/08 03:24:16;;;;;;;12.17;7.73;;;-2.60;99.90;;;;;;4979372;28;20175;-74
2022/03/08 03:26:42;;;;;;;13.20;8.00;;;-2.60;99.90;;;;;;4995461;28;20186;-74
2022/03/08 03:29:08;;;;;;;11.67;8.00;;;-2.70;99.90;;;;;;4995096;28;20188;-74
2022/03/08 03:31:34;;;;;;;12.73;8.23;;;-2.80;99.90;;;;;;4994705;28;20261;-74
2022/03/08 03:34:00;;;;;;;11.43;7.73;;;-2.70;99.90;;;;;;4995286;28;20178;-74
2022/03/08 03:36:26;;;;;;;11.83;7.33;;;-2.70;99.90;;;;;;5011565;28;20171;-74
2022/03/08 03:38:52;;;;;;;10.67;7.57;;;-2.70;99.90;;;;;;5011462;28;20214;-74
2022/03/08 03:41:18;;;;;;;11.90;8.33;;;-2.80;99.90;;;;;;5011087;28;20191;-74
2022/03/08 03:43:44;;;;;;;11.43;8.20;;;-2.80;99.90;;;;;;4994945;28;20186;-74
2022/03/08 03:46:09;;;;;;;10.43;6.97;;;-2.80;99.90;;;;;;4995178;28;20316;-74
2022/03/08 03:48:35;;;;;;;11.33;7.57;;;-2.70;99.90;;;;;;4978763;28;20286;-74
2022/03/08 03:51:01;;;;;;;9.30;6.60;;;-2.70;99.90;;;;;;4994775;28;20690;-74
2022/03/08 03:53:27;;;;;;;12.03;7.27;;;-2.60;99.90;;;;;;5011041;28;20171;-74
2022/03/08 03:55:52;;;;;;;11.73;7.00;;;-2.60;99.90;;;;;;5011335;28;20186;-74
2022/03/08 03:58:18;;;;;;;10.07;7.30;;;-2.60;99.90;;;;;;4994744;28;20175;-74
2022/03/08 04:00:44;;;;;;;11.20;7.57;;;-2.50;99.90;;;;;;4994987;28;20678;-74
2022/03/08 04:03:09;;;;;;;12.93;7.60;;;-2.60;99.90;;;;;;4994783;28;20176;-75
2022/03/08 04:05:35;;;;;;;11.93;7.50;;;-2.60;99.90;;;;;;5011124;28;20190;-74
2022/03/08 04:08:01;;;;;;;12.20;7.30;;;-2.60;99.90;;;;;;4995003;28;20186;-74
2022/03/08 04:10:26;;;;;;;10.03;6.87;;;-2.40;99.90;;;;;;5010912;28;20281;-74
2022/03/08 04:12:52;;;;;;;13.07;7.23;;;-2.40;99.90;;;;;;4978199;28;20206;-74
2022/03/08 04:15:18;;;;;;;11.63;7.93;;;-2.50;99.90;;;;;;5012403;28;20174;-74
2022/03/08 04:17:43;;;;;;;11.20;7.43;;;-2.70;99.90;;;;;;4995028;28;20183;-74
2022/03/08 04:20:10;;;;;;;10.90;6.70;;;-2.70;99.90;;;;;;4978491;28;20198;-74
2022/03/08 04:22:36;;;;;;;12.33;8.13;;;-2.80;99.90;;;;;;4994595;28;20745;-74
2022/03/08 04:25:03;;;;;;;12.23;7.67;;;-2.70;99.90;;;;;;5010882;28;20175;-74
2022/03/08 04:27:29;;;;;;;11.73;8.13;;;-2.70;99.90;;;;;;5011130;28;20226;-74
2022/03/08 04:29:55;;;;;;;11.83;7.80;;;-2.70;99.90;;;;;;5015151;28;20195;-74
2022/03/08 04:32:20;;;;;;;12.73;7.63;;;-2.80;99.90;;;;;;4998273;28;20214;-74
2022/03/08 04:34:46;;;;;;;13.10;7.63;;;-2.90;99.90;;;;;;4998449;28;20175;-74
2022/03/08 04:37:12;;;;;;;13.80;8.13;;;-2.90;99.90;;;;;;5014826;28;20184;-74
2022/03/08 04:39:37;;;;;;;12.10;7.23;;;-2.90;99.90;;;;;;5014563;28;20274;-74
2022/03/08 04:42:03;;;;;;;10.97;7.03;;;-2.80;99.90;;;;;;4998082;28;20179;-74
2022/03/08 04:44:29;;;;;;;9.57;6.90;;;-2.90;99.90;;;;;;4998280;28;20228;-74
2022/03/08 04:46:55;;;;;;;10.80;7.63;;;-2.90;99.90;;;;;;4998282;28;20175;-74
2022/03/08 04:49:20;;;;;;;13.07;7.50;;;-2.90;99.90;;;;;;4981940;28;20190;-75
2022/03/08 04:51:46;;;;;;;10.97;7.40;;;-3.10;99.90;;;;;;5014341;28;20221;-74
2022/03/08 04:54:12;;;;;;;10.37;6.90;;;-3.00;99.90;;;;;;4998094;28;20678;-74
2022/03/08 04:56:37;;;;;;;10.93;6.73;;;-3.00;99.90;;;;;;5014394;28;20171;-74
2022/03/08 04:59:03;;;;;;;10.07;7.30;;;-2.90;99.90;;;;;;4998049;28;20171;-74
2022/03/08 05:01:29;;;;;;;9.93;6.90;;;-2.90;99.90;;;;;;5013819;28;20218;-74
2022/03/08 05:03:55;;;;;;;10.37;7.10;;;-3.00;99.90;;;;;;4997816;28;20278;-74
2022/03/08 05:06:21;;;;;;;9.53;6.93;;;-2.90;99.90;;;;;;4997790;28;20187;-74
2022/03/08 05:08:46;;;;;;;11.03;7.33;;;-3.00;99.90;;;;;;4997928;28;20229;-74
2022/03/08 05:11:13;;;;;;;10.20;6.97;;;-3.00;99.90;;;;;;5013737;28;20206;-74
2022/03/08 05:13:38;;;;;;;10.77;7.37;;;-2.90;99.90;;;;;;4997899;28;20182;-74
2022/03/08 05:16:05;;;;;;;10.37;7.27;;;-2.90;99.90;;;;;;5014086;28;20176;-74
2022/03/08 05:18:30;;;;;;;12.93;7.20;;;-2.80;99.90;;;;;;5013887;28;20179;-74
2022/03/08 05:20:56;;;;;;;11.17;6.80;;;-2.80;99.90;;;;;;4981369;28;20217;-74
2022/03/08 05:23:22;;;;;;;11.23;7.07;;;-2.90;99.90;;;;;;4981257;28;20262;-74
2022/03/08 05:25:47;;;;;;;9.90;7.00;;;-3.10;99.90;;;;;;5013699;28;20187;-75
2022/03/08 05:28:14;;;;;;;11.43;7.83;;;-3.00;99.90;;;;;;4981545;28;20605;-74
2022/03/08 05:30:40;;;;;;;9.87;6.53;;;-3.10;99.90;;;;;;5013888;28;20195;-74
2022/03/08 05:33:05;;;;;;;11.73;7.37;;;-3.10;99.90;;;;;;5013705;28;20533;-75
2022/03/08 05:35:31;;;;;;;12.30;7.43;;;-3.10;99.90;;;;;;4981300;28;20670;-74
2022/03/08 05:37:57;;;;;;;9.33;6.63;;;-3.20;99.90;;;;;;5013759;28;20202;-74
2022/03/08 05:40:22;;;;;;;9.57;6.87;;;-3.20;99.90;;;;;;4996036;28;20260;-74
2022/03/08 05:42:48;;;;;;;11.83;7.80;;;-3.20;99.90;;;;;;4997352;28;20201;-74
2022/03/08 05:45:13;;;;;;;12.57;7.97;;;-3.40;99.90;;;;;;4997245;28;20174;-74
2022/03/08 05:47:41;;;;;;;11.97;7.40;;;-3.50;99.90;;;;;;4980905;28;20637;-74
2022/03/08 05:50:08;;;;;;;12.30;7.10;;;-3.40;99.90;;;;;;4997278;28;20222;-74
2022/03/08 05:52:33;;;;;;;10.90;7.33;;;-3.50;99.90;;;;;;5012852;28;20282;-74
2022/03/08 05:54:59;;;;;;;11.20;7.57;;;-3.50;99.90;;;;;;5013143;28;20809;-74
2022/03/08 05:57:25;;;;;;;12.07;7.50;;;-3.40;99.90;;;;;;4996988;28;20186;-74
2022/03/08 05:59:50;;;;;;;13.37;7.80;;;-3.30;99.90;;;;;;5012977;28;20260;-74
2022/03/08 06:02:17;;;;;;;11.60;7.03;;;-3.40;99.90;;;;;;4980577;28;20270;-73
2022/03/08 06:04:43;;;;;;;13.00;8.70;;;-3.40;99.90;;;;;;4996961;28;20183;-74
2022/03/08 06:07:08;;;;;;;15.93;9.10;;;-3.50;99.90;;;;;;5013133;28;20194;-75
2022/03/08 06:09:34;;;;;;;13.57;7.53;;;-3.50;99.90;;;;;;4980431;28;20207;-75
2022/03/08 06:12:00;;;;;;;13.03;8.33;;;-3.50;99.90;;;;;;4996515;28;20221;-75
2022/03/08 06:14:27;;;;;;;11.20;7.57;;;-3.50;99.90;;;;;;4996913;28;20185;-74
2022/03/08 06:16:53;;;;;;;13.80;7.80;;;-3.60;99.90;;;;;;5012836;28;20175;-75
2022/03/08 06:19:19;;;;;;;10.93;7.30;;;-3.60;99.90;;;;;;5012765;28;20171;-75
2022/03/08 06:21:44;;;;;;;12.50;7.53;;;-3.50;99.90;;;;;;5012660;28;20185;-74
2022/03/08 06:24:11;;;;;;;10.47;6.47;;;-3.50;99.90;;;;;;4980225;28;20277;-75
2022/03/08 06:26:37;;;;;;;12.70;7.77;;;-2.90;99.90;;;;;;4996943;28;20274;-75
2022/03/08 06:29:03;;;;;;;10.77;7.00;;;-1.60;99.90;;;;;;5012933;28;20278;-75
2022/03/08 06:31:29;;;;;;;12.13;6.80;;;-0.70;99.90;;;;;;4996004;28;20218;-75
2022/03/08 06:33:54;;;;;;;10.23;7.33;;;0.00;99.90;;;;;;4996206;28;20179;-76
2022/03/08 06:36:20;;;;;;;9.10;6.73;;;0.60;99.90;;;;;;4979965;28;20279;-75
2022/03/08 06:38:46;;;;;;;10.50;6.77;;;1.20;99.90;;;;;;5012537;28;20184;-75
2022/03/08 06:41:12;;;;;;;10.50;7.13;;;1.20;99.90;;;;;;5012182;28;20202;-75
2022/03/08 06:43:39;;;;;;;10.37;7.47;;;0.30;99.90;;;;;;4995921;28;20715;-75
2022/03/08 06:46:05;;;;;;;11.50;7.50;;;-0.70;99.90;;;;;;5012059;28;20189;-76
2022/03/08 06:48:30;;;;;;;10.03;7.67;;;-1.40;99.90;;;;;;4979858;28;20189;-74
2022/03/08 06:50:56;;;;;;;13.70;7.97;;;-1.60;99.90;;;;;;4995644;28;20263;-75
2022/03/08 06:53:22;;;;;;;10.60;7.43;;;-1.80;99.90;;;;;;4995731;28;20280;-75
2022/03/08 06:55:49;;;;;;;11.80;7.80;;;-1.90;99.90;;;;;;5012213;28;20180;-74
2022/03/08 06:58:14;;;;;;;10.77;7.67;;;-1.90;99.90;;;;;;4996191;28;20196;-75
2022/03/08 07:00:40;;;;;;;11.80;8.13;;;-2.00;99.90;;;;;;5011214;23;20226;-76
2022/03/08 07:03:06;;;;;;;11.30;8.33;;;-1.90;99.90;;;;;;5031902;28;20195;-76
2022/03/08 07:05:32;;;;;;;12.33;8.40;;;-1.90;99.90;;;;;;5015537;28;20183;-76
2022/03/08 07:07:58;;;;;;;13.50;9.20;;;-1.80;99.90;;;;;;5015545;28;20225;-76
2022/03/08 07:10:23;;;;;;;13.67;8.77;;;-1.70;99.90;;;;;;5032204;28;20286;-76
2022/03/08 07:12:49;;;;;;;13.67;8.63;;;-1.80;99.90;;;;;;5014152;28;20218;-75
2022/03/08 07:15:14;;;;;;;14.73;9.40;;;-1.70;99.90;;;;;;5015248;28;20655;-74
2022/03/08 07:17:47;;;;;;;14.93;8.87;;;-1.60;99.90;;;;;;5015348;28;20182;-76
2022/03/08 07:20:14;;;;;;;14.90;9.53;;;-1.60;99.90;;;;;;5014409;28;20199;-75
2022/03/08 07:22:40;;;;;;;13.87;9.90;;;-1.60;99.90;;;;;;5014628;28;20548;-75
2022/03/08 07:25:08;;;;;;;13.30;9.50;;;-1.70;99.90;;;;;;5015832;28;20689;-74
2022/03/08 07:27:34;;;;;;;13.87;9.53;;;-1.70;99.90;;;;;;4999055;28;20556;-74
2022/03/08 07:29:59;;;;;;;13.70;8.87;;;-1.70;99.90;;;;;;5015336;28;20758;-74
2022/03/08 07:32:25;;;;;;;14.33;9.67;;;-1.60;99.90;;;;;;4998753;28;20202;-74
2022/03/08 07:34:51;;;;;;;14.17;9.17;;;-1.60;99.90;;;;;;5032164;28;20224;-74
2022/03/08 07:37:16;;;;;;;16.87;9.93;;;-1.70;99.90;;;;;;4999268;28;20177;-74
2022/03/08 07:39:42;;;;;;;17.13;10.33;;;-1.60;99.90;;;;;;5015227;28;20175;-74
2022/03/08 07:42:08;;;;;;;14.93;10.40;;;-1.60;99.90;;;;;;5015446;28;20190;-74
2022/03/08 07:44:36;;;;;;;15.07;10.40;;;-1.60;99.90;;;;;;5015651;28;20212;-74
2022/03/08 07:47:03;;;;;;;15.30;9.97;;;-1.50;99.90;;;;;;5015684;28;20202;-75
2022/03/08 07:49:28;;;;;;;14.80;9.80;;;-1.40;99.90;;;;;;5014154;28;20174;-75
2022/03/08 07:51:54;;;;;;;15.93;10.60;;;-1.30;99.90;;;;;;4998134;28;20206;-75
2022/03/08 07:54:20;;;;;;;15.50;10.10;;;-1.30;99.90;;;;;;5014666;28;20175;-75
2022/03/08 07:56:45;;;;;;;17.13;10.90;;;-1.20;99.90;;;;;;5014772;28;20178;-75
2022/03/08 07:59:11;;;;;;;16.53;10.83;;;-1.10;99.90;;;;;;5031097;28;20178;-75
2022/03/08 08:01:37;;;;;;;16.20;10.60;;;-0.90;99.90;;;;;;5014354;28;20223;-75
2022/03/08 08:04:03;;;;;;;15.23;10.47;;;-0.80;99.90;;;;;;5030303;28;20257;-75
2022/03/08 08:06:28;;;;;;;16.63;11.00;;;-0.70;99.90;;;;;;5014737;28;20182;-75
2022/03/08 08:08:54;;;;;;;14.93;9.73;;;-0.50;99.90;;;;;;5014339;28;20191;-75
2022/03/08 08:11:20;;;;;;;17.47;10.60;;;-0.30;99.90;;;;;;4997999;28;20213;-75
2022/03/08 08:13:48;;;;;;;15.17;10.00;;;-0.20;99.90;;;;;;5014574;28;20184;-75
2022/03/08 08:16:14;;;;;;;14.33;9.90;;;-0.10;99.90;;;;;;5032185;28;20176;-75
2022/03/08 08:18:40;;;;;;;14.17;10.10;;;0.10;99.90;;;;;;5030753;28;20181;-75
2022/03/08 08:21:05;;;;;;;13.77;10.00;;;0.10;99.90;;;;;;5030517;28;20211;-75
2022/03/08 08:23:31;;;;;;;16.47;11.10;;;0.20;99.90;;;;;;5014410;28;20184;-75
2022/03/08 08:25:57;;;;;;;16.23;10.40;;;0.40;99.90;;;;;;4998399;28;20189;-75
2022/03/08 08:28:23;;;;;;;16.20;11.27;;;0.50;99.90;;;;;;5014876;28;20181;-75
2022/03/08 08:30:48;;;;;;;16.43;10.63;;;0.60;99.90;;;;;;5030901;28;20629;-75
2022/03/08 08:33:14;;;;;;;14.90;9.90;;;0.80;99.90;;;;;;5014391;28;20177;-75
2022/03/08 08:35:40;;;;;;;14.50;9.83;;;1.10;99.90;;;;;;5014639;28;20227;-75
2022/03/08 08:38:06;;;;;;;14.50;10.40;;;1.20;99.90;;;;;;5014693;28;20188;-75
2022/03/08 08:40:31;;;;;;;14.20;10.07;;;1.30;99.90;;;;;;5030634;28;20194;-75
2022/03/08 08:42:57;;;;;;;15.53;10.40;;;1.50;99.90;;;;;;5014352;28;20177;-75
2022/03/08 08:45:23;;;;;;;17.23;10.13;;;1.70;99.90;;;;;;5014320;28;20196;-75
2022/03/08 08:47:48;;;;;;;15.07;10.37;;;1.90;99.90;;;;;;5014265;28;20232;-75
2022/03/08 08:50:14;;;;;;;16.53;10.20;;;2.00;99.90;;;;;;5014361;28;20202;-75
2022/03/08 08:52:40;;;;;;;15.70;9.70;;;2.20;99.90;;;;;;5032116;28;20221;-75
2022/03/08 08:55:06;;;;;;;14.13;10.23;;;2.40;99.90;;;;;;4998993;28;20179;-75
2022/03/08 08:57:33;;;;;;;14.57;10.63;;;2.40;99.90;;;;;;5014885;28;20217;-75
2022/03/08 08:59:58;;;;;;;12.87;9.37;;;2.50;99.90;;;;;;5015219;28;20233;-75
2022/03/08 09:02:24;;;;;;;14.87;10.40;;;2.80;99.90;;;;;;5031183;28;20712;-75
2022/03/08 09:04:49;;;;;;;18.20;11.23;;;2.90;99.90;;;;;;5014914;28;20206;-75
2022/03/08 09:07:15;;;;;;;15.53;10.67;;;3.00;99.90;;;;;;5015208;28;20178;-75
2022/03/08 09:09:41;;;;;;;13.43;9.63;;;3.30;99.90;;;;;;5014796;28;20241;-75
2022/03/08 09:12:07;;;;;;;14.60;9.63;;;3.40;99.90;;;;;;4998467;28;20248;-75
2022/03/08 09:14:32;;;;;;;13.10;9.37;;;3.50;99.90;;;;;;5016871;28;20174;-75
2022/03/08 09:16:58;;;;;;;14.93;9.30;;;3.70;99.90;;;;;;5018456;28;20190;-75
2022/03/08 09:19:23;;;;;;;12.53;8.93;;;3.70;99.90;;;;;;5018560;28;20176;-75
2022/03/08 09:21:49;;;;;;;12.77;8.80;;;4.00;99.90;;;;;;5032490;28;20231;-75
2022/03/08 09:24:15;;;;;;;12.67;8.17;;;4.20;99.90;;;;;;5035146;28;20208;-76
2022/03/08 09:26:41;;;;;;;22.30;10.33;;;4.20;99.90;;;;;;5018868;28;20538;-75
2022/03/08 09:29:07;;;;;;;12.60;8.13;;;4.40;99.90;;;;;;5035035;28;20208;-75
2022/03/08 09:31:32;;;;;;;10.43;7.27;;;4.70;99.90;;;;;;5017906;28;20233;-75
2022/03/08 09:33:58;;;;;;;12.00;7.33;;;5.00;99.90;;;;;;5033835;28;20184;-76
2022/03/08 09:36:24;;;;;;;12.10;6.80;;;5.20;99.90;;;;;;5018431;28;20180;-76
2022/03/08 09:38:49;;;;;;;9.57;5.97;;;5.40;99.90;;;;;;5017852;28;20272;-76
2022/03/08 09:41:15;;;;;;;9.60;6.27;;;5.60;99.90;;;;;;5017523;28;20568;-76
2022/03/08 09:43:42;;;;;;;6.17;4.63;;;5.90;99.90;;;;;;5017324;28;20181;-76
2022/03/08 09:46:08;;;;;;;4.40;3.40;;;6.10;99.90;;;;;;5017236;28;20188;-76
2022/03/08 09:48:33;;;;;;;5.73;4.10;;;6.50;99.90;;;;;;5017470;28;20265;-76
2022/03/08 09:51:04;;;;;;;6.70;4.13;;;6.70;99.90;;;;;;5017269;28;20281;-75
2022/03/08 09:53:31;;;;;;;5.50;4.17;;;6.80;99.90;;;;;;5034206;28;20174;-76
2022/03/08 09:56:00;;;;;;;5.97;4.20;;;6.90;99.90;;;;;;5034105;28;20171;-75
2022/03/08 09:58:26;;;;;;;6.80;4.07;;;6.90;99.90;;;;;;5017580;28;20217;-75
2022/03/08 10:00:55;;;;;;;5.57;3.83;;;7.00;99.90;;;;;;5033922;28;20207;-75
2022/03/08 10:03:31;;;;;;;7.50;4.40;;;7.10;99.90;;;;;;5017827;28;20644;-75
2022/03/08 10:05:57;;;;;;;5.80;3.83;;;7.20;99.90;;;;;;5017311;28;20170;-75
2022/03/08 10:08:23;;;;;;;6.53;3.93;;;7.40;99.90;;;;;;5018116;28;20229;-76
2022/03/08 10:10:50;;;;;;;6.53;4.27;;;7.70;99.90;;;;;;5017564;28;20229;-76
2022/03/08 10:13:18;;;;;;;6.33;3.80;;;7.90;99.90;;;;;;5017373;28;20195;-76
2022/03/08 10:15:44;;;;;;;6.37;4.03;;;8.10;99.90;;;;;;5033523;28;20175;-74
2022/03/08 10:18:10;;;;;;;5.43;4.10;;;8.00;99.90;;;;;;5016732;28;20197;-75
2022/03/08 10:20:36;;;;;;;5.97;4.10;;;7.80;99.90;;;;;;5016848;28;20203;-75
2022/03/08 10:23:38;;;;;;;6.43;4.10;;;7.90;99.90;;;;;;5016342;28;20183;-76
2022/03/08 10:26:07;;;;;;;6.73;4.67;;;8.10;99.90;;;;;;5032676;28;20164;-75
2022/03/08 10:28:44;;;;;;;6.53;4.30;;;8.20;99.90;;;;;;5016878;28;20177;-75
2022/03/08 10:31:14;;;;;;;6.53;4.00;;;8.30;99.90;;;;;;5016598;28;20204;-75
2022/03/08 10:33:40;;;;;;;5.63;4.47;;;8.30;99.90;;;;;;5032584;28;20170;-74
2022/03/08 10:36:13;;;;;;;7.03;4.27;;;8.40;99.90;;;;;;5016305;28;20619;-75
2022/03/08 10:39:06;;;;;;;6.53;4.53;;;8.30;99.80;;;;;;5016735;28;20169;-75
2022/03/08 10:41:32;;;;;;;9.87;8.87;;;8.50;99.90;;;;;;5032352;28;20190;-75
2022/03/08 10:43:57;;;;;;;6.50;4.50;;;8.70;99.90;;;;;;5016183;28;20231;-74
2022/03/08 10:46:25;;;;;;;7.90;4.73;;;8.80;98.60;;;;;;5032907;28;20273;-75
2022/03/08 10:48:54;;;;;;;6.63;4.70;;;9.00;99.90;;;;;;5032672;28;20205;-74
2022/03/08 10:51:20;;;;;;;6.10;4.77;;;9.20;98.20;;;;;;5032114;28;20203;-75
2022/03/08 10:53:46;;;;;;;5.67;4.30;;;9.20;99.00;;;;;;5016248;28;20319;-75
2022/03/08 10:56:19;;;;;;;7.30;4.17;;;9.10;98.20;;;;;;5016333;28;20171;-74
2022/03/08 10:58:52;;;;;;;6.33;4.80;;;9.10;97.70;;;;;;5032633;28;20173;-74
2022/03/08 11:01:18;;;;;;;5.57;4.37;;;8.80;97.30;;;;;;5015852;28;20264;-75
2022/03/08 11:03:58;;;;;;;5.63;4.23;;;8.90;96.30;;;;;;5016106;28;20185;-74
2022/03/08 11:06:24;;;;;;;6.47;4.70;;;8.90;97.70;;;;;;5015899;28;20272;-74
2022/03/08 11:08:52;;;;;;;6.60;4.60;;;8.70;94.30;;;;;;5015645;28;20245;-74
2022/03/08 11:11:19;;;;;;;6.07;4.73;;;8.50;95.20;;;;;;5015902;28;20216;-75
2022/03/08 11:13:50;;;;;;;6.17;4.63;;;8.60;94.70;;;;;;5015650;28;20656;-75
2022/03/08 11:16:16;;;;;;;6.43;4.40;;;8.70;94.10;;;;;;5032029;28;20159;-74
2022/03/08 11:18:49;;;;;;;5.60;3.90;;;8.80;93.60;;;;;;5015600;28;20170;-75
2022/03/08 11:21:41;;;;;;;5.83;4.40;;;8.70;92.70;;;;;;5015273;28;20205;-75
2022/03/08 11:24:08;;;;;;;5.77;4.37;;;8.80;95.10;;;;;;5015470;28;20181;-75
2022/03/08 11:26:34;;;;;;;5.03;4.23;;;9.10;95.00;;;;;;5015705;28;20185;-75
2022/03/08 11:29:03;;;;;;;5.73;4.00;;;9.10;92.30;;;;;;5015865;28;20193;-74
2022/03/08 11:31:32;;;;;;;5.80;3.93;;;9.40;92.60;;;;;;5031566;28;20216;-74
2022/03/08 11:34:09;;;;;;;5.90;4.20;;;9.40;91.00;;;;;;5015596;28;20221;-74
2022/03/08 11:36:38;;;;;;;6.80;4.30;;;9.80;92.50;;;;;;5032710;28;20158;-75
2022/03/08 11:39:14;;;;;;;5.20;4.03;;;9.90;89.70;;;;;;5014899;28;20173;-75
2022/03/08 11:41:41;;;;;;;6.33;4.23;;;10.40;92.90;;;;;;5014979;28;20422;-74
2022/03/08 11:44:07;;;;;;;5.00;3.63;;;10.70;91.80;;;;;;5032710;28;20563;-74
2022/03/08 11:46:33;;;;;;;4.73;3.93;;;10.30;85.40;;;;;;5015483;28;20183;-74
2022/03/08 11:49:02;;;;;;;5.93;3.73;;;10.00;86.90;;;;;;5015317;28;20181;-75
2022/03/08 11:51:30;;;;;;;4.93;3.83;;;10.00;89.00;;;;;;5014716;28;20264;-75
2022/03/08 11:54:27;;;;;;;4.77;3.77;;;10.10;90.00;;;;;;5015195;28;20173;-75
2022/03/08 11:56:54;;;;;;;4.30;3.70;;;10.10;90.60;;;;;;5031445;28;20184;-75
2022/03/08 11:59:20;;;;;;;4.67;3.70;;;10.60;88.40;;;;;;5015120;28;20174;-75
2022/03/08 12:01:47;;;;;;;4.70;3.90;;;11.00;83.50;;;;;;5031228;28;20285;-75
2022/03/08 12:04:18;;;;;;;4.93;3.73;;;11.00;85.50;;;;;;5031644;28;20177;-75
2022/03/08 12:06:58;;;;;;;5.73;3.70;;;11.20;84.00;;;;;;5015071;28;20204;-75
2022/03/08 12:09:25;;;;;;;6.43;3.80;;;11.00;79.60;;;;;;5015663;28;20178;-76
2022/03/08 12:12:01;;;;;;;5.20;4.00;;;11.00;81.50;;;;;;5014877;28;20213;-75
2022/03/08 12:14:38;;;;;;;4.67;3.77;;;11.10;77.40;;;;;;4998397;28;20173;-75
2022/03/08 12:17:14;;;;;;;5.63;3.93;;;11.40;80.70;;;;;;5015060;28;20265;-75
2022/03/08 12:19:44;;;;;;;5.10;3.83;;;11.10;80.40;;;;;;5031113;28;20178;-75
2022/03/08 12:26:10;;;;;;;4.40;3.33;;;11.60;78.40;;;;;;5032410;28;20154;-75
2022/03/08 12:29:13;;;;;;;4.73;3.70;;;11.80;74.90;;;;;;5031003;28;20173;-75
2022/03/08 12:31:58;;;;;;;5.23;3.43;;;11.50;72.10;;;;;;5030767;28;20204;-75
2022/03/08 12:34:47;;;;;;;3.83;3.23;;;11.60;73.00;;;;;;5014417;28;20174;-75
2022/03/08 12:37:13;;;;;;;3.80;3.10;;;12.00;72.90;;;;;;5014686;28;20163;-75
2022/03/08 12:40:10;;;;;;;4.47;3.37;;;12.00;70.60;;;;;;5014388;28;20185;-75
2022/03/08 12:42:50;;;;;;;5.20;3.27;;;12.10;71.10;;;;;;5013823;28;20225;-76
2022/03/08 12:45:19;;;;;;;3.70;3.30;;;12.10;74.60;;;;;;5014096;28;20189;-76